Time;durP1;ratioP1;P1;durP2;ratioP2;P2;SDS_P1;SDS_P2;PMS_P1;PMS_P2;Temp;Humidity;BMP_temperature;BMP_pressure;BME280_temperature;BME280_humidity;BME280_pressure;Samples;Min_cycle;Max_cycle;Signal;HPM_P1;HPM_P2
2022/03/24 00:02:06;;;;;;;58.92;38.65;;;5.40;1.00;;;;;;6094749;23;20015;-84
2022/03/24 00:04:32;;;;;;;62.75;39.78;;;5.70;1.00;;;;;;6069475;23;20026;-84
2022/03/24 00:06:58;;;;;;;65.90;39.55;;;5.30;1.00;;;;;;6095105;23;20019;-86
2022/03/24 00:09:24;;;;;;;59.08;37.88;;;5.50;1.00;;;;;;6044655;23;20027;-84
2022/03/24 00:11:50;;;;;;;59.05;39.70;;;5.30;1.00;;;;;;6095338;23;20019;-84
2022/03/24 00:14:19;;;;;;;62.92;40.30;;;6.20;1.00;;;;;;6091689;23;20161;-84
2022/03/24 00:16:45;;;;;;;62.63;39.45;;;5.20;1.00;;;;;;6045673;23;20050;-84
2022/03/24 00:19:11;;;;;;;67.00;42.60;;;6.00;1.00;;;;;;6045096;23;20123;-84
2022/03/24 00:21:37;;;;;;;68.20;41.10;;;7.00;1.00;;;;;;6094856;23;20082;-85
2022/03/24 00:24:03;;;;;;;65.72;40.95;;;5.20;1.00;;;;;;6094431;23;20022;-85
2022/03/24 00:26:29;;;;;;;63.88;41.22;;;5.20;1.00;;;;;;6045829;23;20085;-84
2022/03/24 00:28:55;;;;;;;64.80;40.25;;;5.30;1.00;;;;;;6068402;23;20030;-84
2022/03/24 00:31:20;;;;;;;66.10;42.45;;;6.30;1.00;;;;;;6094382;23;20014;-84
2022/03/24 00:33:46;;;;;;;64.40;41.35;;;5.10;1.00;;;;;;6094812;23;20034;-84
2022/03/24 00:36:14;;;;;;;63.50;41.25;;;5.30;1.00;;;;;;6094101;23;20029;-84
2022/03/24 00:38:40;;;;;;;64.13;41.33;;;5.00;1.00;;;;;;6095292;23;20022;-84
2022/03/24 00:41:07;;;;;;;62.47;41.00;;;5.00;1.00;;;;;;6094553;23;20018;-84
2022/03/24 00:43:33;;;;;;;66.18;42.83;;;6.30;1.00;;;;;;6045290;23;20133;-84
2022/03/24 00:45:59;;;;;;;68.28;42.47;;;6.00;1.00;;;;;;6093880;23;20014;-84
2022/03/24 00:48:25;;;;;;;68.53;42.85;;;6.40;1.00;;;;;;6069166;23;20097;-84
2022/03/24 00:50:52;;;;;;;63.47;41.08;;;4.90;1.00;;;;;;6094595;23;20022;-84
2022/03/24 00:53:18;;;;;;;64.47;41.45;;;6.70;1.00;;;;;;6068414;23;20022;-86
2022/03/24 00:55:44;;;;;;;64.40;40.88;;;4.80;1.00;;;;;;6022288;23;20327;-84
2022/03/24 00:58:10;;;;;;;64.93;41.38;;;5.10;1.00;;;;;;6094545;23;20025;-84
2022/03/24 01:00:38;;;;;;;65.40;41.55;;;5.30;1.00;;;;;;6093620;23;20089;-85
2022/03/24 01:03:06;;;;;;;68.78;41.20;;;4.80;1.00;;;;;;6068670;23;20024;-86
2022/03/24 01:05:34;;;;;;;64.15;41.35;;;4.70;1.00;;;;;;6094687;23;20022;-84
2022/03/24 01:08:00;;;;;;;63.63;41.78;;;5.40;1.00;;;;;;6068805;23;20089;-84
2022/03/24 01:10:26;;;;;;;62.53;40.65;;;5.10;1.00;;;;;;6093961;23;20158;-84
2022/03/24 01:12:52;;;;;;;66.93;43.20;;;5.90;1.00;;;;;;6094619;23;20446;-84
2022/03/24 01:15:23;;;;;;;66.70;42.28;;;4.60;1.00;;;;;;6067234;23;20090;-84
2022/03/24 01:17:49;;;;;;;67.82;44.72;;;4.60;1.00;;;;;;6093241;23;20089;-84
2022/03/24 01:20:16;;;;;;;67.30;42.97;;;4.60;1.00;;;;;;6093876;23;20284;-84
2022/03/24 01:22:42;;;;;;;70.50;42.28;;;6.10;1.00;;;;;;6094743;23;20015;-84
2022/03/24 01:25:08;;;;;;;68.68;42.85;;;4.50;1.00;;;;;;6068269;23;20041;-87
2022/03/24 01:27:35;;;;;;;66.95;43.60;;;;;;;;;;6068235;23;20335;-84
2022/03/24 01:30:01;;;;;;;68.25;43.83;;;4.50;1.00;;;;;;6068018;23;20018;-84
2022/03/24 01:32:27;;;;;;;75.28;44.63;;;4.50;1.00;;;;;;6093820;23;20127;-84
2022/03/24 01:34:54;;;;;;;65.47;43.15;;;4.40;1.00;;;;;;6093496;23;20050;-84
2022/03/24 01:37:22;;;;;;;70.15;43.75;;;4.50;1.00;;;;;;6068374;23;20058;-83
2022/03/24 01:39:49;;;;;;;71.28;44.45;;;;;;;;;;6045242;23;20048;-84
2022/03/24 01:42:16;;;;;;;67.97;43.85;;;4.40;1.00;;;;;;6093749;23;20018;-84
2022/03/24 01:44:46;;;;;;;72.13;44.33;;;4.40;1.00;;;;;;6093120;23;20122;-83
2022/03/24 01:47:12;;;;;;;72.35;45.28;;;4.30;1.00;;;;;;6045103;23;20026;-85
2022/03/24 01:49:40;;;;;;;68.72;44.17;;;4.30;1.00;;;;;;6094154;23;20233;-84
2022/03/24 01:52:07;;;;;;;;;;;4.30;1.00;;;;;;6069577;23;20029;-84
2022/03/24 01:54:35;;;;;;;76.32;49.83;;;4.30;1.00;;;;;;6067963;23;19968;-84
2022/03/24 01:57:02;;;;;;;90.25;50.30;;;4.30;1.00;;;;;;6094675;23;20023;-84
2022/03/24 01:59:28;;;;;;;81.53;50.05;;;4.30;1.00;;;;;;6066818;23;20105;-84
2022/03/24 02:01:54;;;;;;;76.68;44.72;;;4.20;1.00;;;;;;6094201;23;20050;-84
2022/03/24 02:04:20;;;;;;;79.50;48.33;;;4.20;1.00;;;;;;6093046;23;20028;-84
2022/03/24 02:06:47;;;;;;;83.43;48.35;;;4.20;1.00;;;;;;6069076;23;20073;-84
2022/03/24 02:09:13;;;;;;;86.45;51.65;;;6.10;1.00;;;;;;6044290;23;20033;-86
2022/03/24 02:11:39;;;;;;;79.40;49.65;;;4.10;1.00;;;;;;6068219;23;20059;-84
2022/03/24 02:14:06;;;;;;;80.78;49.95;;;4.10;1.00;;;;;;6093007;23;20103;-84
2022/03/24 02:16:38;;;;;;;82.53;51.38;;;4.10;1.00;;;;;;6093770;23;20057;-84
2022/03/24 02:19:16;;;;;;;78.85;49.45;;;5.90;1.00;;;;;;6068311;23;20081;-84
2022/03/24 02:21:43;;;;;;;83.07;49.47;;;4.00;1.00;;;;;;6068193;23;20022;-84
2022/03/24 02:24:10;;;;;;;78.90;48.80;;;5.50;1.00;;;;;;6093891;23;20022;-84
2022/03/24 02:26:37;;;;;;;90.87;49.57;;;4.00;1.00;;;;;;6068190;23;20088;-84
2022/03/24 02:29:07;;;;;;;74.32;48.75;;;4.20;1.00;;;;;;6093472;23;20249;-84
2022/03/24 02:31:40;;;;;;;81.70;48.60;;;5.30;1.00;;;;;;6095121;23;20023;-84
2022/03/24 02:36:52;;;;;;;86.75;50.67;;;3.90;1.00;;;;;;6094770;23;20080;-84
2022/03/24 02:39:19;;;;;;;83.93;51.45;;;3.80;1.00;;;;;;6093266;23;20065;-84
2022/03/24 02:41:53;;;;;;;79.05;49.58;;;3.80;1.00;;;;;;6068650;23;20026;-84
2022/03/24 02:44:20;;;;;;;86.95;53.00;;;3.80;1.00;;;;;;6091944;23;20062;-85
2022/03/24 02:46:47;;;;;;;92.72;54.92;;;3.80;1.00;;;;;;6094839;23;20026;-85
2022/03/24 02:49:22;;;;;;;96.90;58.95;;;4.40;1.00;;;;;;6092903;23;20073;-84
2022/03/24 02:51:51;;;;;;;102.07;59.45;;;4.60;1.00;;;;;;6094410;23;20026;-85
2022/03/24 02:54:18;;;;;;;99.28;58.25;;;4.70;1.00;;;;;;6068084;23;20061;-86
2022/03/24 02:56:44;;;;;;;98.80;58.25;;;4.40;1.00;;;;;;6094562;23;20026;-85
2022/03/24 02:59:12;;;;;;;90.35;57.70;;;4.70;1.00;;;;;;6043867;23;20018;-84
2022/03/24 03:01:41;;;;;;;90.15;55.65;;;3.70;1.00;;;;;;6094138;23;20010;-85
2022/03/24 03:04:08;;;;;;;86.65;55.42;;;3.70;1.00;;;;;;6093205;23;20022;-84
2022/03/24 03:06:34;;;;;;;95.85;58.28;;;4.90;1.00;;;;;;6093248;23;20089;-84
2022/03/24 03:09:04;;;;;;;95.78;58.15;;;3.70;1.00;;;;;;6067648;23;20026;-84
2022/03/24 03:11:33;;;;;;;96.90;58.25;;;5.20;1.00;;;;;;6093236;23;20017;-83
2022/03/24 03:14:02;;;;;;;93.70;57.30;;;3.60;1.00;;;;;;6092305;23;20405;-84
2022/03/24 03:16:28;;;;;;;92.57;58.70;;;3.70;1.00;;;;;;6093446;23;20053;-84
2022/03/24 03:18:55;;;;;;;94.55;57.78;;;4.70;1.00;;;;;;6093714;23;20019;-83
2022/03/24 03:21:21;;;;;;;93.43;55.30;;;;;;;;;;6091613;23;20342;-86
2022/03/24 03:23:47;;;;;;;89.78;57.20;;;3.50;1.00;;;;;;6067623;23;20070;-84
2022/03/24 03:26:16;;;;;;;91.28;55.75;;;3.50;1.00;;;;;;6093982;23;20023;-83
2022/03/24 03:28:42;;;;;;;94.72;56.80;;;3.50;1.00;;;;;;6092223;23;20028;-84
2022/03/24 03:31:08;;;;;;;90.45;59.05;;;4.50;1.30;;;;;;6068066;23;20025;-83
2022/03/24 03:33:36;;;;;;;99.85;60.55;;;3.40;1.00;;;;;;6092635;23;20022;-83
2022/03/24 03:36:05;;;;;;;91.75;58.90;;;3.40;1.00;;;;;;6093275;23;20025;-84
2022/03/24 03:38:32;;;;;;;97.97;59.50;;;3.60;2.10;;;;;;6093200;23;20019;-84
2022/03/24 03:40:59;;;;;;;105.75;64.13;;;3.30;1.30;;;;;;6093709;23;20421;-85
2022/03/24 03:43:26;;;;;;;117.10;68.45;;;3.30;2.90;;;;;;6067690;23;20022;-85
2022/03/24 03:45:52;;;;;;;110.00;66.80;;;3.30;3.40;;;;;;6066087;23;20060;-84
2022/03/24 03:48:17;;;;;;;103.85;62.20;;;3.30;4.60;;;;;;6091960;23;20022;-85
2022/03/24 03:50:43;;;;;;;109.57;61.00;;;3.30;4.60;;;;;;6092837;23;20065;-84
2022/03/24 03:53:10;;;;;;;103.07;62.33;;;5.00;5.60;;;;;;6067897;23;20093;-84
2022/03/24 03:55:37;;;;;;;104.45;64.28;;;3.70;5.30;;;;;;6066863;23;20077;-84
2022/03/24 03:58:06;;;;;;;111.95;66.28;;;3.20;5.50;;;;;;6093647;23;20022;-85
2022/03/24 04:00:55;;;;;;;103.95;62.50;;;4.10;6.00;;;;;;6089858;23;20022;-84
2022/03/24 04:03:21;;;;;;;107.70;61.73;;;3.20;5.00;;;;;;6093607;23;20026;-85
2022/03/24 04:05:46;;;;;;;105.00;65.25;;;4.30;5.60;;;;;;6092438;23;20291;-84
2022/03/24 04:08:13;;;;;;;108.30;63.45;;;3.10;8.60;;;;;;6068854;23;20029;-84
2022/03/24 04:10:39;;;;;;;105.32;65.22;;;3.10;7.40;;;;;;6094621;23;20022;-84
2022/03/24 04:13:06;;;;;;;100.05;60.75;;;4.30;6.70;;;;;;6095558;23;20041;-85
2022/03/24 04:15:35;;;;;;;103.55;61.00;;;3.10;6.10;;;;;;6093185;23;20015;-84
2022/03/24 04:18:01;;;;;;;110.20;63.97;;;4.80;7.20;;;;;;6095404;23;20029;-84
2022/03/24 04:20:27;;;;;;;107.00;63.97;;;3.50;8.00;;;;;;6094310;23;20019;-85
2022/03/24 04:22:54;;;;;;;109.00;65.18;;;4.00;7.70;;;;;;6094986;23;20041;-84
2022/03/24 04:25:21;;;;;;;107.15;65.95;;;3.00;7.50;;;;;;6045498;23;20023;-84
2022/03/24 04:27:50;;;;;;;107.40;62.97;;;3.00;7.50;;;;;;6094474;23;20437;-83
2022/03/24 04:30:17;;;;;;;105.47;63.72;;;4.80;9.00;;;;;;6068533;23;20101;-84
2022/03/24 04:32:44;;;;;;;108.75;62.88;;;2.80;11.80;;;;;;6069029;23;20022;-83
2022/03/24 04:35:11;;;;;;;113.28;66.50;;;4.70;9.20;;;;;;6094493;23;20050;-83
2022/03/24 04:37:38;;;;;;;111.60;67.97;;;2.10;12.30;;;;;;6094408;23;20025;-85
2022/03/24 04:40:05;;;;;;;112.60;66.75;;;2.90;8.90;;;;;;6094982;23;20021;-83
2022/03/24 04:42:32;;;;;;;122.28;65.97;;;3.00;9.60;;;;;;6094494;23;20101;-84
2022/03/24 04:44:58;;;;;;;110.72;66.05;;;4.80;13.30;;;;;;6043628;23;20029;-84
2022/03/24 04:47:24;;;;;;;113.70;66.40;;;2.90;10.10;;;;;;6095158;23;20030;-84
2022/03/24 04:49:50;;;;;;;217.38;71.53;;;2.90;10.50;;;;;;6093967;23;20022;-84
2022/03/24 04:52:16;;;;;;;109.22;67.95;;;4.70;13.30;;;;;;6069718;23;20093;-83
2022/03/24 04:54:42;;;;;;;153.93;69.70;;;4.10;12.40;;;;;;6093210;23;20022;-84
2022/03/24 04:57:11;;;;;;;118.85;65.38;;;2.90;12.60;;;;;;6045611;23;20126;-84
2022/03/24 04:59:37;;;;;;;111.72;65.15;;;2.90;11.80;;;;;;6093132;23;20090;-84
2022/03/24 05:02:03;;;;;;;117.68;65.93;;;3.80;12.30;;;;;;6069748;23;20450;-84
2022/03/24 05:04:29;;;;;;;196.90;70.20;;;2.80;12.20;;;;;;6094452;23;20029;-84
2022/03/24 05:06:55;;;;;;;114.53;66.70;;;;;;;;;;6068151;23;20097;-85
2022/03/24 05:09:20;;;;;;;109.25;65.00;;;2.90;10.90;;;;;;6094210;23;20022;-83
2022/03/24 05:11:46;;;;;;;114.43;66.47;;;2.90;17.80;;;;;;6094211;23;20446;-84
2022/03/24 05:14:12;;;;;;;119.72;72.47;;;3.80;15.30;;;;;;6066906;23;20046;-84
2022/03/24 05:16:38;;;;;;;118.88;66.95;;;4.50;15.40;;;;;;6068038;23;20022;-84
2022/03/24 05:19:04;;;;;;;108.05;64.13;;;2.30;15.50;;;;;;6067806;23;20022;-85
2022/03/24 05:21:32;;;;;;;109.95;63.83;;;2.80;16.40;;;;;;6093694;23;20046;-84
2022/03/24 05:23:58;;;;;;;;;;;1.90;16.30;;;;;;6094786;23;20022;-84
2022/03/24 05:26:25;;;;;;;105.07;63.67;;;3.80;16.60;;;;;;6092258;23;19917;-87
2022/03/24 05:28:51;;;;;;;112.50;65.82;;;4.40;21.70;;;;;;6091068;23;20354;-84
2022/03/24 05:31:17;;;;;;;122.30;71.47;;;4.00;16.90;;;;;;6044589;23;20019;-85
2022/03/24 05:33:44;;;;;;;122.28;72.75;;;1.50;19.90;;;;;;6093646;23;20101;-85
2022/03/24 05:36:10;;;;;;;118.72;70.03;;;2.70;17.10;;;;;;6093715;23;20081;-85
2022/03/24 05:38:36;;;;;;;125.65;70.93;;;2.70;17.00;;;;;;6068160;23;20022;-85
2022/03/24 05:41:02;;;;;;;120.80;69.72;;;2.40;19.40;;;;;;6091509;23;20022;-84
2022/03/24 05:43:28;;;;;;;139.00;76.50;;;2.70;17.20;;;;;;6068597;23;20029;-85
2022/03/24 05:45:55;;;;;;;446.33;96.10;;;;;;;;;;6066839;23;20022;-84
2022/03/24 05:48:21;;;;;;;126.28;76.05;;;2.70;15.20;;;;;;6094763;23;20022;-84
2022/03/24 05:50:46;;;;;;;126.80;71.72;;;2.90;21.70;;;;;;6093547;23;20018;-84
2022/03/24 05:53:13;;;;;;;148.68;72.22;;;2.80;18.90;;;;;;6067162;23;20299;-85
2022/03/24 05:55:40;;;;;;;119.25;71.05;;;2.50;21.00;;;;;;6066777;23;20026;-84
2022/03/24 05:58:06;;;;;;;151.70;84.70;;;2.70;19.00;;;;;;6094621;23;20085;-84
2022/03/24 06:00:35;;;;;;;138.48;79.07;;;2.70;19.90;;;;;;6093075;23;20019;-85
2022/03/24 06:03:01;;;;;;;128.77;77.35;;;3.10;24.00;;;;;;6094993;23;20010;-86
2022/03/24 06:05:27;;;;;;;129.10;75.55;;;2.80;21.40;;;;;;6068923;23;20027;-86
2022/03/24 06:07:53;;;;;;;128.23;74.97;;;4.30;21.50;;;;;;6068999;23;20018;-85
2022/03/24 06:10:19;;;;;;;129.05;76.68;;;4.30;21.80;;;;;;6068952;23;20176;-85
2022/03/24 06:12:47;;;;;;;130.00;75.75;;;2.70;22.60;;;;;;6094255;23;20093;-86
2022/03/24 06:15:13;;;;;;;129.85;77.05;;;2.90;20.10;;;;;;6044761;23;20029;-87
2022/03/24 06:17:39;;;;;;;138.10;78.60;;;3.30;22.20;;;;;;6094667;23;20022;-87
2022/03/24 06:20:08;;;;;;;129.40;75.07;;;3.60;21.40;;;;;;6069327;23;20041;-86
2022/03/24 06:22:51;;;;;;;130.90;74.95;;;3.00;20.20;;;;;;6092406;23;20458;-85
2022/03/24 06:25:17;;;;;;;123.38;76.15;;;3.10;19.40;;;;;;6094710;23;20022;-85
2022/03/24 06:27:43;;;;;;;139.65;80.15;;;3.20;19.10;;;;;;6094852;23;20026;-85
2022/03/24 06:30:10;;;;;;;137.82;79.35;;;4.30;20.80;;;;;;6044856;23;20349;-85
2022/03/24 06:32:36;;;;;;;143.68;80.80;;;3.30;19.00;;;;;;6095230;23;20030;-85
2022/03/24 06:35:03;;;;;;;146.80;81.90;;;3.50;19.20;;;;;;6045324;23;20032;-86
2022/03/24 06:37:29;;;;;;;152.85;84.93;;;3.40;18.40;;;;;;6069416;23;20018;-85
2022/03/24 06:39:56;;;;;;;156.95;84.95;;;3.40;20.20;;;;;;6068580;23;20254;-85
2022/03/24 06:42:23;;;;;;;149.15;83.93;;;4.90;22.50;;;;;;6094325;23;20021;-85
2022/03/24 06:44:49;;;;;;;149.67;84.63;;;5.60;19.30;;;;;;6065502;23;20349;-85
2022/03/24 06:47:15;;;;;;;150.77;82.28;;;5.80;19.30;;;;;;6068116;23;20042;-85
2022/03/24 06:49:41;;;;;;;139.32;81.45;;;4.00;16.50;;;;;;6094025;23;20018;-86
2022/03/24 06:52:07;;;;;;;166.48;88.25;;;4.30;20.80;;;;;;6021746;23;20057;-85
2022/03/24 06:54:33;;;;;;;155.13;88.70;;;4.10;18.20;;;;;;6068300;23;20022;-85
2022/03/24 06:56:58;;;;;;;147.73;85.57;;;4.20;18.20;;;;;;6044318;23;20247;-86
2022/03/24 06:59:24;;;;;;;148.52;85.22;;;4.80;18.70;;;;;;6093352;23;20378;-85
2022/03/24 07:01:50;;;;;;;148.38;85.78;;;4.30;16.70;;;;;;6094189;23;20067;-86
2022/03/24 07:04:16;;;;;;;150.13;86.53;;;5.10;17.10;;;;;;6068929;23;20018;-85
2022/03/24 07:06:42;;;;;;;148.85;88.47;;;4.60;18.40;;;;;;6068629;23;20143;-86
2022/03/24 07:09:08;;;;;;;154.30;89.35;;;4.70;18.70;;;;;;6069470;23;20570;-86
2022/03/24 07:11:34;;;;;;;156.95;87.47;;;5.90;19.20;;;;;;6069419;23;20042;-86
2022/03/24 07:13:59;;;;;;;151.85;88.38;;;5.00;19.40;;;;;;6093193;23;20323;-86
2022/03/24 07:16:25;;;;;;;148.48;88.20;;;7.10;20.90;;;;;;6094880;23;20029;-85
2022/03/24 07:18:51;;;;;;;162.93;91.72;;;6.10;19.90;;;;;;6068744;23;20011;-86
2022/03/24 07:21:17;;;;;;;176.82;97.07;;;7.50;19.20;;;;;;6069179;23;20026;-86
2022/03/24 07:23:43;;;;;;;160.10;94.70;;;6.70;19.50;;;;;;6068217;23;20018;-86
2022/03/24 07:26:09;;;;;;;156.98;93.38;;;6.70;19.10;;;;;;6093927;23;20022;-86
2022/03/24 07:28:35;;;;;;;171.40;99.47;;;7.30;19.80;;;;;;6094380;23;20018;-86
2022/03/24 07:31:16;;;;;;;162.93;96.28;;;6.00;29.00;;;;;;6092675;23;20023;-86
2022/03/24 07:33:45;;;;;;;161.43;93.57;;;7.20;45.00;;;;;;6093768;23;20023;-86
2022/03/24 07:36:11;;;;;;;156.02;91.63;;;6.40;37.10;;;;;;6093900;23;20023;-86
2022/03/24 07:38:37;;;;;;;156.93;93.70;;;6.50;29.30;;;;;;6094187;23;20499;-85
2022/03/24 07:41:03;;;;;;;157.30;89.43;;;7.90;30.30;;;;;;6094103;23;20102;-86
2022/03/24 07:43:29;;;;;;;149.10;89.07;;;6.80;25.90;;;;;;6096141;23;20446;-85
2022/03/24 07:45:54;;;;;;;143.20;87.72;;;6.90;21.40;;;;;;6093958;23;20108;-86
2022/03/24 07:48:25;;;;;;;139.90;85.82;;;7.50;24.20;;;;;;6096480;23;20019;-86
2022/03/24 07:50:54;;;;;;;111.13;68.45;;;9.10;16.30;;;;;;6069586;23;20093;-86
2022/03/24 07:53:32;;;;;;;103.93;61.85;;;10.60;1.00;;;;;;6096479;23;20049;-86
2022/03/24 07:55:59;;;;;;;88.57;55.58;;;12.00;1.00;;;;;;6095765;23;20057;-86
2022/03/24 07:58:25;;;;;;;85.72;51.75;;;13.10;1.00;;;;;;6096175;23;20022;-85
2022/03/24 08:00:51;;;;;;;79.28;45.95;;;14.20;1.00;;;;;;6044911;23;20097;-86
2022/03/24 08:03:19;;;;;;;77.13;47.50;;;15.10;1.00;;;;;;6096261;23;20438;-87
2022/03/24 08:05:46;;;;;;;77.95;48.55;;;15.90;1.00;;;;;;6069664;23;20093;-86
2022/03/24 08:08:12;;;;;;;72.60;47.25;;;16.80;1.00;;;;;;6070626;23;20022;-85
2022/03/24 08:10:43;;;;;;;68.70;41.90;;;17.60;1.00;;;;;;6095861;23;20097;-86
2022/03/24 08:13:10;;;;;;;66.40;44.20;;;18.20;1.00;;;;;;6094552;23;20109;-85
2022/03/24 08:15:37;;;;;;;73.25;42.95;;;18.90;1.00;;;;;;6069367;23;20022;-86
2022/03/24 08:18:04;;;;;;;72.72;44.00;;;19.50;1.00;;;;;;6070307;23;20489;-85
2022/03/24 08:20:31;;;;;;;67.22;42.00;;;20.00;1.00;;;;;;6096190;23;20014;-85
2022/03/24 08:23:00;;;;;;;73.43;42.05;;;20.40;1.00;;;;;;6095496;23;20073;-85
2022/03/24 08:25:25;;;;;;;60.88;39.45;;;20.80;1.00;;;;;;6070444;23;20026;-85
2022/03/24 08:27:51;;;;;;;59.35;37.63;;;21.20;1.00;;;;;;6095609;23;20056;-86
2022/03/24 08:30:17;;;;;;;60.53;37.80;;;21.70;1.00;;;;;;6094882;23;20446;-84
2022/03/24 08:32:43;;;;;;;56.83;36.92;;;22.10;1.00;;;;;;6095787;23;20311;-85
2022/03/24 08:35:10;;;;;;;57.05;36.35;;;22.40;1.00;;;;;;6094901;23;20287;-85
2022/03/24 08:37:36;;;;;;;54.03;33.78;;;22.50;1.00;;;;;;6095747;23;20116;-86
2022/03/24 08:40:02;;;;;;;51.53;32.33;;;22.50;1.00;;;;;;6069365;23;20482;-86
2022/03/24 08:42:28;;;;;;;56.30;34.00;;;22.70;1.00;;;;;;6095780;23;20019;-86
2022/03/24 08:44:54;;;;;;;48.72;31.92;;;22.80;1.00;;;;;;6091917;23;20414;-86
2022/03/24 08:47:19;;;;;;;49.60;32.38;;;22.90;1.00;;;;;;6095598;23;20029;-86
2022/03/24 08:49:45;;;;;;;54.47;31.92;;;23.20;1.00;;;;;;6095493;23;20022;-86
2022/03/24 08:52:12;;;;;;;54.33;32.40;;;23.30;99.90;;;;;;6093321;23;20056;-86
2022/03/24 08:54:38;;;;;;;55.13;32.53;;;23.40;99.90;;;;;;6069293;23;20469;-86
2022/03/24 08:57:04;;;;;;;52.05;33.30;;;23.50;99.90;;;;;;6045814;23;20057;-86
2022/03/24 08:59:30;;;;;;;58.80;33.90;;;23.80;99.90;;;;;;6094407;23;20044;-86
2022/03/24 09:01:57;;;;;;;56.58;34.17;;;23.20;99.90;;;;;;6045445;23;20481;-86
2022/03/24 09:04:26;;;;;;;60.60;33.70;;;24.00;99.90;;;;;;6095469;23;20374;-86
2022/03/24 09:06:53;;;;;;;51.97;33.00;;;24.10;99.90;;;;;;6069471;23;20137;-86
2022/03/24 09:09:22;;;;;;;50.58;33.03;;;24.20;99.90;;;;;;6069750;23;20033;-86
2022/03/24 09:11:49;;;;;;;49.83;32.20;;;24.40;99.90;;;;;;6069935;23;20319;-85
2022/03/24 09:14:16;;;;;;;55.15;32.53;;;24.40;99.90;;;;;;6068785;23;20081;-85
2022/03/24 09:16:42;;;;;;;48.00;30.35;;;24.80;99.90;;;;;;6095555;23;20058;-86
2022/03/24 09:19:08;;;;;;;50.30;29.08;;;25.00;99.90;;;;;;6094601;23;20175;-85
2022/03/24 09:21:34;;;;;;;45.28;29.80;;;25.40;99.90;;;;;;6095372;23;20074;-86
2022/03/24 09:24:00;;;;;;;51.08;29.55;;;25.60;99.90;;;;;;6069135;23;20132;-85
2022/03/24 09:26:25;;;;;;;45.60;29.17;;;25.50;99.90;;;;;;6095309;23;20022;-85
2022/03/24 09:28:52;;;;;;;44.40;28.75;;;25.80;99.90;;;;;;6067970;23;20026;-86
2022/03/24 09:31:20;;;;;;;47.75;29.48;;;26.20;99.90;;;;;;6095264;23;20057;-85
2022/03/24 09:33:46;;;;;;;50.30;28.85;;;26.50;99.90;;;;;;6095116;23;20019;-86
2022/03/24 09:36:11;;;;;;;54.70;30.52;;;26.70;99.90;;;;;;6069025;23;20024;-86
2022/03/24 09:38:40;;;;;;;50.22;29.67;;;26.50;99.90;;;;;;6095033;23;20022;-87
2022/03/24 09:41:06;;;;;;;43.83;29.02;;;26.60;99.90;;;;;;6094844;23;20030;-86
2022/03/24 09:43:36;;;;;;;44.20;30.13;;;27.00;99.90;;;;;;6069575;23;20442;-87
2022/03/24 09:46:03;;;;;;;45.28;29.77;;;27.20;99.90;;;;;;6093869;23;20033;-86
2022/03/24 09:48:28;;;;;;;50.35;30.33;;;27.30;99.90;;;;;;6095034;23;20030;-85
2022/03/24 09:50:54;;;;;;;47.88;29.00;;;27.30;99.90;;;;;;6094406;23;20349;-85
2022/03/24 09:53:22;;;;;;;53.05;29.83;;;27.50;99.90;;;;;;6069547;23;20474;-85
2022/03/24 09:55:49;;;;;;;51.03;30.50;;;27.50;99.90;;;;;;6094560;23;20030;-86
2022/03/24 09:58:15;;;;;;;47.25;29.35;;;27.60;99.90;;;;;;6068639;23;20101;-86
2022/03/24 10:00:42;;;;;;;47.03;28.77;;;27.70;99.90;;;;;;6067967;23;20422;-86
2022/03/24 10:03:14;;;;;;;47.50;30.83;;;27.80;99.90;;;;;;6094557;23;20082;-86
2022/03/24 10:06:07;;;;;;;42.47;29.05;;;27.80;99.90;;;;;;6068572;23;20018;-86
2022/03/24 10:08:34;;;;;;;48.33;30.10;;;27.80;99.90;;;;;;6068778;23;20029;-86
2022/03/24 10:11:01;;;;;;;48.08;29.23;;;28.00;99.90;;;;;;6095224;23;20011;-87
2022/03/24 10:13:44;;;;;;;46.25;29.45;;;28.20;99.90;;;;;;6094778;23;20041;-86
2022/03/24 10:16:12;;;;;;;48.38;31.60;;;28.60;99.90;;;;;;6067949;23;20462;-86
2022/03/24 10:18:57;;;;;;;49.70;32.17;;;28.70;99.90;;;;;;6094293;23;20025;-86
2022/03/24 10:21:23;;;;;;;43.75;30.33;;;28.80;99.90;;;;;;6094639;23;20407;-86
2022/03/24 10:23:49;;;;;;;41.72;30.23;;;29.00;99.90;;;;;;6068187;23;20026;-87
2022/03/24 10:26:16;;;;;;;53.22;30.15;;;29.30;99.90;;;;;;6068808;23;20018;-86
2022/03/24 10:28:58;;;;;;;45.20;30.35;;;29.60;99.90;;;;;;6068377;23;20022;-86
2022/03/24 10:31:35;;;;;;;47.05;29.10;;;29.50;99.90;;;;;;6094448;23;20168;-87
2022/03/24 10:34:06;;;;;;;45.67;30.15;;;29.60;99.90;;;;;;6068089;23;20022;-87
2022/03/24 10:36:32;;;;;;;40.83;26.58;;;29.60;99.90;;;;;;6069312;23;20346;-86
2022/03/24 10:39:04;;;;;;;48.72;30.20;;;29.80;99.90;;;;;;6068243;23;20338;-86
2022/03/24 10:41:32;;;;;;;49.63;31.00;;;30.10;99.90;;;;;;6094683;23;20054;-86
2022/03/24 10:44:12;;;;;;;51.88;30.35;;;30.00;99.90;;;;;;6067308;23;20062;-87
2022/03/24 10:46:41;;;;;;;44.72;29.45;;;29.90;99.90;;;;;;6094025;23;20452;-87
2022/03/24 10:49:20;;;;;;;50.42;28.10;;;30.00;99.90;;;;;;6093837;23;20480;-86
2022/03/24 10:51:48;;;;;;;54.63;31.98;;;29.90;99.90;;;;;;6094615;23;20025;-84
2022/03/24 10:54:23;;;;;;;43.35;29.50;;;29.80;99.90;;;;;;6068195;23;20535;-85
2022/03/24 10:57:08;;;;;;;44.15;28.50;;;29.90;99.90;;;;;;6069033;23;20026;-84
2022/03/24 10:59:40;;;;;;;44.78;28.23;;;30.10;99.90;;;;;;6093591;23;20124;-84
2022/03/24 11:02:07;;;;;;;44.25;27.05;;;30.30;99.90;;;;;;6093917;23;20019;-84
2022/03/24 11:04:33;;;;;;;42.53;27.55;;;30.20;99.90;;;;;;6068459;23;20022;-84
2022/03/24 11:06:59;;;;;;;42.13;25.80;;;30.30;99.90;;;;;;6069032;23;20018;-86
2022/03/24 11:09:32;;;;;;;42.03;26.23;;;30.50;99.90;;;;;;6044826;23;20078;-86
2022/03/24 11:12:43;;;;;;;42.70;25.70;;;30.50;99.90;;;;;;6093962;23;20027;-86
2022/03/24 11:15:09;;;;;;;41.67;26.08;;;30.60;99.90;;;;;;6070563;23;20054;-85
2022/03/24 11:17:39;;;;;;;42.17;23.13;;;30.70;99.90;;;;;;6095568;23;20022;-85
2022/03/24 11:20:14;;;;;;;40.70;25.00;;;30.70;99.90;;;;;;6095550;23;20246;-85
2022/03/24 11:22:47;;;;;;;44.88;22.52;;;30.40;99.90;;;;;;6096249;23;20335;-85
2022/03/24 11:25:13;;;;;;;39.20;24.15;;;30.70;99.90;;;;;;6095657;23;20026;-85
2022/03/24 11:27:39;;;;;;;36.45;22.52;;;30.60;99.90;;;;;;6096528;23;20078;-85
2022/03/24 11:30:07;;;;;;;65.00;27.08;;;30.70;99.90;;;;;;6068867;23;20076;-86
2022/03/24 11:32:37;;;;;;;35.20;22.45;;;30.90;99.90;;;;;;6096187;23;20084;-86
2022/03/24 11:35:05;;;;;;;35.95;22.83;;;30.40;99.90;;;;;;6095272;23;20490;-86
2022/03/24 11:37:31;;;;;;;39.65;21.58;;;29.70;99.90;;;;;;6071134;23;20014;-86
2022/03/24 11:40:10;;;;;;;35.78;21.15;;;29.70;99.90;;;;;;6095715;23;20548;-86
2022/03/24 11:42:53;;;;;;;40.22;22.00;;;30.40;99.90;;;;;;6096173;23;20022;-86
2022/03/24 11:45:34;;;;;;;38.75;22.23;;;30.70;99.90;;;;;;6094493;23;20065;-86
2022/03/24 11:48:11;;;;;;;37.40;22.05;;;30.50;99.90;;;;;;6095596;23;20478;-89
2022/03/24 11:50:52;;;;;;;37.97;21.98;;;30.10;99.90;;;;;;6069436;23;20093;-86
2022/03/24 11:53:29;;;;;;;33.83;18.02;;;29.80;99.90;;;;;;6096715;23;20093;-87
2022/03/24 11:56:06;;;;;;;38.80;17.52;;;30.20;99.90;;;;;;6071428;23;20074;-86
2022/03/24 11:58:36;;;;;;;36.63;21.10;;;30.50;99.90;;;;;;6097083;23;20529;-86
2022/03/24 12:01:25;;;;;;;34.63;20.13;;;30.60;99.90;;;;;;6096388;23;20041;-87
2022/03/24 12:03:54;;;;;;;37.20;22.50;;;30.70;99.90;;;;;;6070709;23;20018;-87
2022/03/24 12:06:40;;;;;;;40.75;23.45;;;30.90;99.90;;;;;;6095353;23;20023;-86
2022/03/24 12:09:06;;;;;;;42.85;23.30;;;30.80;99.90;;;;;;6094507;23;20081;-86
2022/03/24 12:11:32;;;;;;;44.50;26.65;;;29.70;99.90;;;;;;6095350;23;20018;-86
2022/03/24 12:14:05;;;;;;;44.60;26.55;;;28.40;99.90;;;;;;6068222;23;20434;-86
2022/03/24 12:16:31;;;;;;;38.03;23.35;;;26.90;99.90;;;;;;6069357;23;20022;-85
2022/03/24 12:18:57;;;;;;;38.58;24.02;;;25.70;99.90;;;;;;6069698;23;20077;-85
2022/03/24 12:21:25;;;;;;;40.15;26.50;;;24.80;99.90;;;;;;6094934;23;20762;-85
2022/03/24 12:24:02;;;;;;;45.40;26.85;;;23.70;99.90;;;;;;6094499;23;20073;-86
2022/03/24 12:26:29;;;;;;;43.10;28.52;;;23.30;99.90;;;;;;6095156;23;20121;-85
2022/03/24 12:29:13;;;;;;;47.67;29.40;;;22.90;99.90;;;;;;6068070;23;20034;-85
2022/03/24 12:32:04;;;;;;;43.90;28.25;;;22.50;99.90;;;;;;6095757;23;20330;-85
2022/03/24 12:34:44;;;;;;;46.70;29.02;;;22.20;99.90;;;;;;6069942;23;20015;-85
2022/03/24 12:37:22;;;;;;;42.95;26.25;;;21.80;99.90;;;;;;6094852;23;20134;-85
2022/03/24 12:40:09;;;;;;;37.72;25.92;;;21.50;99.90;;;;;;6095261;23;20022;-85
2022/03/24 12:42:50;;;;;;;41.33;25.02;;;21.20;99.90;;;;;;6095454;23;20429;-85
2022/03/24 12:45:28;;;;;;;47.88;28.38;;;21.00;99.90;;;;;;6093150;23;20237;-86